Time;durP1;ratioP1;P1;durP2;ratioP2;P2;SDS_P1;SDS_P2;PMS_P1;PMS_P2;Temp;Humidity;BMP_temperature;BMP_pressure;BME280_temperature;BME280_humidity;BME280_pressure;Samples;Min_cycle;Max_cycle;Signal;HPM_P1;HPM_P2
2023/07/23 00:00:28;;;;;;;5.88;3.50;;;14.80;99.90;;;;;;4982145;28;20087;-59
2023/07/23 00:02:54;;;;;;;4.63;4.22;;;14.80;99.90;;;;;;4976428;28;20104;-58
2023/07/23 00:05:21;;;;;;;4.18;3.75;;;14.70;99.90;;;;;;4979449;28;20015;-58
2023/07/23 00:07:47;;;;;;;4.95;4.07;;;14.70;99.90;;;;;;4977920;28;20038;-58
2023/07/23 00:10:13;;;;;;;3.88;3.47;;;14.70;99.90;;;;;;4976422;28;20491;-57
2023/07/23 00:12:38;;;;;;;4.75;3.97;;;14.70;99.90;;;;;;4979177;28;20387;-58
2023/07/23 00:15:05;;;;;;;3.53;3.10;;;14.70;99.90;;;;;;4978144;28;20027;-57
2023/07/23 00:17:30;;;;;;;4.65;4.25;;;14.80;99.90;;;;;;4980070;28;20026;-58
2023/07/23 00:19:56;;;;;;;11.48;3.97;;;14.80;99.90;;;;;;4981639;28;20034;-58
2023/07/23 00:22:22;;;;;;;12.63;3.63;;;14.90;99.90;;;;;;4979398;28;20511;-57
2023/07/23 00:24:48;;;;;;;36.33;4.78;;;14.90;99.90;;;;;;4977940;28;20034;-58
2023/07/23 00:27:13;;;;;;;56.15;7.15;;;14.90;99.90;;;;;;4979595;28;20046;-59
2023/07/23 00:29:42;;;;;;;25.35;5.95;;;14.90;99.90;;;;;;4977263;28;20027;-58
2023/07/23 00:32:08;;;;;;;19.88;4.47;;;15.00;99.90;;;;;;4979809;28;20093;-58
2023/07/23 00:34:34;;;;;;;21.23;4.30;;;15.00;99.90;;;;;;4977436;28;20189;-57
2023/07/23 00:37:00;;;;;;;14.75;3.83;;;15.00;99.90;;;;;;4976969;28;20053;-57
2023/07/23 00:39:26;;;;;;;4.95;4.55;;;15.00;99.90;;;;;;4976510;28;20031;-57
2023/07/23 00:41:52;;;;;;;36.00;4.97;;;15.10;99.90;;;;;;4976753;28;20023;-58
2023/07/23 00:44:17;;;;;;;1999.90;999.90;;;15.10;99.90;;;;;;4975845;28;20027;-57
2023/07/23 00:46:43;;;;;;;1999.90;999.90;;;15.10;99.90;;;;;;4974867;28;20138;-58
2023/07/23 00:49:10;;;;;;;38.25;35.80;;;15.10;99.90;;;;;;4977125;28;20031;-59
2023/07/23 00:51:36;;;;;;;1999.90;999.90;;;15.20;99.90;;;;;;4976765;28;20407;-57
2023/07/23 00:54:03;;;;;;;163.05;20.15;;;15.20;99.90;;;;;;4977779;28;20035;-56
2023/07/23 00:56:30;;;;;;;22.88;3.88;;;15.20;99.90;;;;;;4978859;28;20034;-59
2023/07/23 00:58:56;;;;;;;10.90;10.20;;;15.20;99.90;;;;;;4978166;28;20027;-58
2023/07/23 01:01:22;;;;;;;41.10;5.00;;;15.20;99.90;;;;;;4975422;28;20039;-58
2023/07/23 01:03:49;;;;;;;3.05;2.80;;;15.30;99.90;;;;;;4977030;28;20037;-55
2023/07/23 01:06:16;;;;;;;4.95;3.35;;;15.30;99.90;;;;;;4976642;28;20419;-57
2023/07/23 01:08:44;;;;;;;4.15;3.72;;;15.30;99.90;;;;;;4977345;28;20022;-57
2023/07/23 01:11:10;;;;;;;4.68;3.55;;;15.40;99.90;;;;;;4976055;28;20081;-56
2023/07/23 01:13:37;;;;;;;3.63;3.28;;;15.40;99.90;;;;;;4978898;28;20022;-57
2023/07/23 01:16:07;;;;;;;3.78;3.15;;;15.40;99.90;;;;;;4976443;28;20085;-57
2023/07/23 01:18:37;;;;;;;5.07;2.92;;;15.40;99.90;;;;;;4977303;28;20058;-57
2023/07/23 01:21:03;;;;;;;3.20;2.90;;;15.40;99.90;;;;;;4979091;28;20042;-58
2023/07/23 01:23:30;;;;;;;3.55;2.97;;;15.30;99.90;;;;;;4977701;28;20359;-58
2023/07/23 01:25:56;;;;;;;6.18;3.70;;;15.30;99.90;;;;;;4976353;28;20101;-58
2023/07/23 01:28:22;;;;;;;3.65;3.35;;;15.30;99.90;;;;;;4976429;28;20230;-58
2023/07/23 01:30:47;;;;;;;4.55;3.90;;;15.30;99.90;;;;;;4976419;28;20043;-58
2023/07/23 01:33:14;;;;;;;11.45;3.88;;;15.30;99.90;;;;;;4976887;28;20034;-58
2023/07/23 01:35:40;;;;;;;3.35;3.05;;;15.30;99.90;;;;;;4977414;28;20587;-58
2023/07/23 01:38:06;;;;;;;5.40;3.95;;;15.40;99.90;;;;;;4980794;28;20101;-57
2023/07/23 01:40:32;;;;;;;4.13;3.72;;;15.40;99.90;;;;;;4980894;28;20832;-58
2023/07/23 01:42:58;;;;;;;131.65;10.38;;;15.50;99.90;;;;;;4975906;28;20038;-57
2023/07/23 01:45:28;;;;;;;111.38;8.02;;;15.50;99.90;;;;;;4976417;28;20562;-58
2023/07/23 01:47:54;;;;;;;35.53;5.65;;;15.60;99.90;;;;;;4977261;28;20080;-57
2023/07/23 01:50:19;;;;;;;3.70;3.40;;;15.60;99.90;;;;;;4977336;28;20022;-57
2023/07/23 01:52:45;;;;;;;4.00;3.42;;;15.70;99.90;;;;;;4981376;28;20038;-57
2023/07/23 01:55:10;;;;;;;5.97;2.92;;;15.70;99.90;;;;;;4978787;28;20519;-57
2023/07/23 01:57:36;;;;;;;7.40;3.33;;;15.70;99.90;;;;;;4976388;28;20031;-57
2023/07/23 02:00:03;;;;;;;4.57;3.42;;;15.70;99.90;;;;;;4979369;28;20081;-58
2023/07/23 02:02:29;;;;;;;3.85;2.92;;;15.70;99.90;;;;;;4977052;28;20039;-57
2023/07/23 02:04:55;;;;;;;7.25;3.20;;;15.70;99.90;;;;;;4974166;28;20088;-58
2023/07/23 02:07:20;;;;;;;3.65;3.35;;;15.70;99.90;;;;;;4972795;28;20034;-57
2023/07/23 02:09:50;;;;;;;3.25;2.92;;;15.70;99.90;;;;;;4975910;28;20073;-58
2023/07/23 02:12:16;;;;;;;6.68;3.22;;;15.70;99.90;;;;;;4979470;28;20023;-58
2023/07/23 02:14:41;;;;;;;4.55;3.47;;;15.70;99.90;;;;;;4977217;28;20019;-58
2023/07/23 02:17:07;;;;;;;3.67;3.38;;;15.70;99.90;;;;;;4974198;28;20029;-59
2023/07/23 02:19:33;;;;;;;3.47;3.15;;;15.70;99.90;;;;;;4978186;28;20085;-58
2023/07/23 02:21:58;;;;;;;4.40;2.72;;;15.70;99.90;;;;;;4972122;28;20033;-58
2023/07/23 02:24:24;;;;;;;3.58;3.28;;;15.70;99.90;;;;;;4977155;28;20031;-57
2023/07/23 02:26:50;;;;;;;4.00;3.60;;;15.70;99.90;;;;;;4976346;28;20506;-57
2023/07/23 02:29:15;;;;;;;3.65;3.35;;;15.70;99.90;;;;;;4976080;28;20461;-59
2023/07/23 02:31:41;;;;;;;5.88;3.25;;;15.70;99.90;;;;;;4977383;28;20046;-57
2023/07/23 02:34:07;;;;;;;3.40;3.10;;;15.70;99.90;;;;;;4978821;28;20054;-59
2023/07/23 02:36:34;;;;;;;19.77;3.63;;;15.70;99.90;;;;;;4976422;28;20128;-59
2023/07/23 02:39:00;;;;;;;22.63;4.47;;;15.70;99.90;;;;;;4975893;28;20038;-56
2023/07/23 02:41:26;;;;;;;83.55;20.17;;;15.70;99.90;;;;;;4976911;28;20030;-59
2023/07/23 02:43:53;;;;;;;33.20;3.67;;;15.70;99.90;;;;;;4978060;28;20419;-59
2023/07/23 02:46:19;;;;;;;6.72;3.97;;;15.70;99.90;;;;;;4975157;28;20038;-59
2023/07/23 02:48:45;;;;;;;4.10;2.70;;;15.70;99.90;;;;;;4976673;28;20029;-57
2023/07/23 02:51:10;;;;;;;2.95;2.65;;;15.80;99.90;;;;;;4974789;28;20507;-58
2023/07/23 02:53:36;;;;;;;4.13;2.65;;;15.80;99.90;;;;;;4976718;28;20034;-58
2023/07/23 02:56:02;;;;;;;4.10;2.75;;;15.70;99.90;;;;;;4975502;28;20040;-57
2023/07/23 02:58:27;;;;;;;4.40;2.95;;;15.70;99.90;;;;;;4978174;28;20041;-59
2023/07/23 03:00:56;;;;;;;2.58;2.38;;;15.70;99.90;;;;;;4975448;28;20035;-57
2023/07/23 03:03:22;;;;;;;3.17;2.88;;;15.80;99.90;;;;;;4975775;28;20036;-58
2023/07/23 03:05:47;;;;;;;4.13;2.72;;;15.70;99.90;;;;;;4974606;28;20105;-56
2023/07/23 03:08:13;;;;;;;2.58;2.38;;;15.80;99.90;;;;;;4977995;28;20029;-57
2023/07/23 03:10:42;;;;;;;4.85;3.10;;;15.80;99.90;;;;;;4979114;28;20093;-59
2023/07/23 03:13:09;;;;;;;3.78;2.80;;;15.80;99.90;;;;;;4981268;28;20077;-58
2023/07/23 03:15:35;;;;;;;2.83;2.63;;;15.80;99.90;;;;;;4977113;28;20027;-57
2023/07/23 03:18:02;;;;;;;4.75;3.03;;;15.80;99.90;;;;;;4977357;28;20506;-58
2023/07/23 03:20:28;;;;;;;3.90;3.50;;;15.80;99.90;;;;;;4978100;28;20039;-58
2023/07/23 03:22:54;;;;;;;3.22;2.92;;;15.80;99.90;;;;;;4979093;28;20043;-57
2023/07/23 03:25:20;;;;;;;4.28;3.25;;;15.70;99.90;;;;;;4982558;28;20461;-58
2023/07/23 03:27:45;;;;;;;4.47;2.83;;;15.70;99.90;;;;;;4979699;28;20039;-59
2023/07/23 03:30:11;;;;;;;4.03;2.40;;;15.60;99.90;;;;;;4979728;28;20074;-57
2023/07/23 03:32:37;;;;;;;5.13;3.10;;;15.60;99.90;;;;;;4976244;28;20023;-56
2023/07/23 03:35:03;;;;;;;4.68;3.95;;;15.60;99.90;;;;;;4977621;28;20027;-58
2023/07/23 03:37:28;;;;;;;4.00;3.60;;;15.60;99.90;;;;;;4980430;28;20038;-58
2023/07/23 03:39:54;;;;;;;3.53;3.22;;;15.60;99.90;;;;;;4980347;28;20565;-58
2023/07/23 03:42:20;;;;;;;3.42;2.92;;;15.50;99.90;;;;;;4976211;28;20046;-59
2023/07/23 03:44:46;;;;;;;4.00;2.90;;;15.50;99.90;;;;;;4978705;28;20055;-59
2023/07/23 03:47:20;;;;;;;4.53;3.42;;;15.50;99.90;;;;;;4975104;28;20408;-59
2023/07/23 03:49:47;;;;;;;3.75;2.90;;;15.50;99.90;;;;;;4982195;28;20034;-58
2023/07/23 03:52:13;;;;;;;3.38;3.03;;;15.50;99.90;;;;;;4978439;28;20023;-59
2023/07/23 03:54:39;;;;;;;5.80;3.20;;;15.50;99.90;;;;;;4979852;28;20031;-59
2023/07/23 03:57:05;;;;;;;4.93;3.10;;;15.50;99.90;;;;;;4982857;28;20030;-59
2023/07/23 03:59:35;;;;;;;4.28;2.95;;;15.50;99.90;;;;;;4979733;28;20078;-58
2023/07/23 04:02:01;;;;;;;4.70;3.15;;;15.50;99.90;;;;;;4980176;28;20055;-59
2023/07/23 04:04:27;;;;;;;5.43;2.80;;;15.50;99.90;;;;;;4978928;28;20035;-58
2023/07/23 04:06:53;;;;;;;4.25;3.00;;;15.40;99.90;;;;;;4979845;28;20042;-59
2023/07/23 04:09:21;;;;;;;3.83;3.42;;;15.40;99.90;;;;;;4974666;28;20427;-58
2023/07/23 04:11:47;;;;;;;3.50;3.20;;;15.30;99.90;;;;;;4975305;28;20122;-57
2023/07/23 04:14:13;;;;;;;6.13;3.50;;;15.40;99.90;;;;;;4981073;28;20527;-57
2023/07/23 04:16:38;;;;;;;3.08;2.80;;;15.30;99.90;;;;;;4976324;28;20034;-56
2023/07/23 04:19:04;;;;;;;3.92;3.03;;;15.30;99.90;;;;;;4975860;28;20450;-56
2023/07/23 04:21:30;;;;;;;5.43;3.22;;;15.30;99.90;;;;;;4974735;28;20038;-58
2023/07/23 04:23:57;;;;;;;3.72;3.28;;;15.30;99.90;;;;;;4975345;28;20031;-58
2023/07/23 04:26:25;;;;;;;4.43;2.78;;;15.30;99.90;;;;;;4972558;28;20102;-58
2023/07/23 04:28:51;;;;;;;4.60;2.90;;;15.40;99.90;;;;;;4987909;28;20100;-58
2023/07/23 04:31:17;;;;;;;4.60;3.10;;;15.40;99.90;;;;;;4980316;28;20031;-59
2023/07/23 04:33:43;;;;;;;3.33;3.03;;;15.40;99.90;;;;;;4975789;28;20023;-58
2023/07/23 04:36:10;;;;;;;4.20;3.15;;;15.40;99.90;;;;;;4979522;28;20053;-59
2023/07/23 04:38:35;;;;;;;3.80;2.90;;;15.40;99.90;;;;;;4978673;28;20026;-58
2023/07/23 04:41:01;;;;;;;4.75;2.72;;;15.50;99.90;;;;;;4982631;28;20614;-59
2023/07/23 04:43:27;;;;;;;3.58;2.75;;;15.50;99.90;;;;;;4978256;28;20043;-57
2023/07/23 04:45:52;;;;;;;3.13;2.78;;;15.50;99.90;;;;;;4978378;28;20105;-58
2023/07/23 04:48:18;;;;;;;3.67;3.28;;;15.50;99.90;;;;;;4976952;28;20579;-57
2023/07/23 04:50:44;;;;;;;3.47;3.17;;;15.50;99.90;;;;;;4976789;28;20039;-58
2023/07/23 04:53:10;;;;;;;3.95;2.58;;;15.50;99.90;;;;;;4979728;28;20022;-57
2023/07/23 04:55:36;;;;;;;3.05;2.75;;;15.50;99.90;;;;;;4976013;28;20523;-57
2023/07/23 04:58:02;;;;;;;3.30;3.00;;;15.50;99.90;;;;;;4977995;28;20041;-59
2023/07/23 05:00:28;;;;;;;3.80;3.17;;;15.60;99.90;;;;;;4979141;28;20039;-57
2023/07/23 05:02:54;;;;;;;3.67;3.22;;;15.60;99.90;;;;;;4976387;28;20027;-56
2023/07/23 05:05:20;;;;;;;5.40;4.43;;;15.60;99.90;;;;;;4980476;28;20023;-58
2023/07/23 05:07:45;;;;;;;4.80;3.83;;;15.70;99.90;;;;;;4977977;28;20034;-57
2023/07/23 05:10:11;;;;;;;4.78;3.78;;;15.70;99.90;;;;;;4979748;28;20364;-58
2023/07/23 05:12:39;;;;;;;5.05;3.45;;;15.70;99.90;;;;;;4977262;28;20110;-57
2023/07/23 05:15:11;;;;;;;3.63;3.13;;;15.80;99.90;;;;;;4976487;28;20089;-58
2023/07/23 05:17:37;;;;;;;3.70;3.22;;;15.90;99.90;;;;;;4973517;28;20026;-57
2023/07/23 05:20:07;;;;;;;4.38;3.20;;;15.90;99.90;;;;;;4978193;28;20096;-56
2023/07/23 05:22:36;;;;;;;3.30;2.70;;;16.00;99.90;;;;;;4977839;28;20034;-58
2023/07/23 05:25:03;;;;;;;6.75;3.20;;;16.10;99.90;;;;;;4976619;28;20034;-57
2023/07/23 05:27:29;;;;;;;3.30;3.00;;;16.20;99.90;;;;;;4978161;28;20118;-58
2023/07/23 05:29:54;;;;;;;3.28;2.83;;;16.20;99.90;;;;;;4978797;28;20039;-58
2023/07/23 05:32:20;;;;;;;2.78;2.55;;;16.30;99.90;;;;;;4976546;28;20443;-58
2023/07/23 05:34:45;;;;;;;3.85;2.75;;;16.50;99.90;;;;;;4975104;28;20064;-58
2023/07/23 05:37:11;;;;;;;3.35;2.67;;;16.50;99.90;;;;;;4972613;28;20596;-58
2023/07/23 05:39:37;;;;;;;3.78;2.58;;;16.70;99.90;;;;;;4976365;28;20034;-58
2023/07/23 05:42:02;;;;;;;2.90;2.50;;;16.80;99.90;;;;;;4978138;28;20035;-58
2023/07/23 05:44:28;;;;;;;6.60;2.72;;;16.90;99.90;;;;;;4978481;28;20495;-58
2023/07/23 05:46:54;;;;;;;3.35;2.20;;;17.00;99.90;;;;;;4977423;28;20022;-59
2023/07/23 05:49:19;;;;;;;3.53;2.85;;;17.20;99.90;;;;;;4975775;28;20037;-57
2023/07/23 05:51:45;;;;;;;5.32;2.30;;;17.30;99.90;;;;;;4975812;28;20045;-58
2023/07/23 05:54:10;;;;;;;6.90;3.10;;;17.40;99.90;;;;;;4978304;28;20031;-58
2023/07/23 05:56:37;;;;;;;3.10;2.63;;;17.60;99.90;;;;;;4975361;28;20030;-58
2023/07/23 05:59:02;;;;;;;3.00;2.28;;;17.70;99.90;;;;;;4977439;28;20027;-56
2023/07/23 06:01:28;;;;;;;2.22;2.00;;;17.90;99.90;;;;;;4976578;28;20790;-58
2023/07/23 06:03:53;;;;;;;3.03;2.45;;;18.10;99.90;;;;;;4977320;28;20045;-59
2023/07/23 06:06:19;;;;;;;16.35;2.63;;;18.30;99.90;;;;;;4979562;28;20507;-57
2023/07/23 06:08:45;;;;;;;51.03;3.70;;;18.30;99.90;;;;;;4979509;28;20044;-59
2023/07/23 06:11:10;;;;;;;4.07;2.22;;;18.50;99.90;;;;;;4979485;28;20561;-58
2023/07/23 06:13:36;;;;;;;3.92;2.33;;;18.60;99.90;;;;;;4978833;28;20022;-58
2023/07/23 06:16:02;;;;;;;3.30;2.30;;;18.70;99.90;;;;;;4979033;28;20034;-59
2023/07/23 06:18:28;;;;;;;2.95;2.10;;;18.80;99.90;;;;;;4977361;28;20086;-58
2023/07/23 06:20:54;;;;;;;2.45;2.17;;;18.90;99.90;;;;;;4976650;28;20026;-59
2023/07/23 06:23:19;;;;;;;3.80;2.17;;;19.00;99.90;;;;;;4978214;28;20030;-57
2023/07/23 06:25:45;;;;;;;17.90;3.97;;;19.30;99.90;;;;;;4978102;28;20027;-59
2023/07/23 06:28:11;;;;;;;294.90;100.32;;;19.50;99.90;;;;;;4974171;28;20561;-60
2023/07/23 06:30:36;;;;;;;159.63;134.02;;;19.80;99.90;;;;;;4973943;28;20112;-57
2023/07/23 06:33:02;;;;;;;102.28;92.82;;;20.00;99.90;;;;;;4974664;28;20081;-58
2023/07/23 06:35:28;;;;;;;1.25;1.10;;;20.20;99.90;;;;;;4971804;28;20399;-59
2023/07/23 06:37:53;;;;;;;1.65;1.00;;;20.40;99.90;;;;;;4976383;28;20105;-58
2023/07/23 06:40:19;;;;;;;1.27;1.10;;;20.50;99.90;;;;;;4975803;28;20035;-60
2023/07/23 06:42:45;;;;;;;1.70;0.98;;;20.60;99.90;;;;;;4978834;28;20110;-58
2023/07/23 06:45:11;;;;;;;1.65;0.98;;;20.70;99.90;;;;;;4981017;28;20019;-58
2023/07/23 06:47:38;;;;;;;1.73;0.90;;;20.80;99.90;;;;;;4979792;28;20093;-59
2023/07/23 06:50:04;;;;;;;2.33;1.20;;;21.00;99.90;;;;;;4984455;28;20026;-59
2023/07/23 06:52:30;;;;;;;1.83;1.10;;;21.10;99.90;;;;;;4980426;28;20037;-58
2023/07/23 06:54:55;;;;;;;2.03;1.40;;;21.20;99.90;;;;;;4980437;28;20387;-59
2023/07/23 06:57:21;;;;;;;1.50;0.82;;;21.30;99.90;;;;;;4979619;28;20119;-59
2023/07/23 06:59:48;;;;;;;0.95;0.90;;;21.40;99.50;;;;;;4980203;28;20132;-58
2023/07/23 07:02:14;;;;;;;3.30;1.38;;;21.40;98.80;;;;;;4980110;28;20015;-58
2023/07/23 07:04:40;;;;;;;1.88;1.20;;;21.50;96.80;;;;;;4980738;28;20028;-58
2023/07/23 07:07:06;;;;;;;3.30;1.42;;;21.50;98.20;;;;;;4980062;28;20154;-60
2023/07/23 07:09:31;;;;;;;1.80;1.15;;;21.60;98.10;;;;;;4978846;28;20145;-58
2023/07/23 07:11:57;;;;;;;1.27;0.80;;;21.70;95.80;;;;;;4980019;28;20110;-58
2023/07/23 07:14:23;;;;;;;1.05;0.93;;;21.80;94.80;;;;;;4977126;28;20037;-60
2023/07/23 07:16:48;;;;;;;1.70;1.27;;;21.80;95.10;;;;;;4978379;28;20026;-57
2023/07/23 07:19:14;;;;;;;1.48;0.90;;;22.00;94.80;;;;;;4981542;28;20487;-59
2023/07/23 07:21:40;;;;;;;2.08;1.73;;;22.10;93.30;;;;;;4979589;28;20898;-59
2023/07/23 07:24:06;;;;;;;1.50;1.30;;;22.20;92.70;;;;;;4979699;28;20383;-58
2023/07/23 07:26:32;;;;;;;2.50;1.63;;;22.40;93.00;;;;;;4978546;28;20565;-59
2023/07/23 07:28:58;;;;;;;2.58;1.20;;;22.60;91.10;;;;;;4982773;28;20810;-60
2023/07/23 07:31:24;;;;;;;2.45;1.80;;;22.80;91.60;;;;;;4976635;28;20495;-59
2023/07/23 07:33:49;;;;;;;2.53;1.88;;;22.90;88.30;;;;;;4977314;28;20039;-59
2023/07/23 07:36:17;;;;;;;1.77;0.85;;;23.00;88.30;;;;;;4981271;28;20186;-60
2023/07/23 07:38:43;;;;;;;1.65;1.25;;;23.20;89.40;;;;;;4980024;28;20509;-59
2023/07/23 07:41:09;;;;;;;2.00;1.70;;;23.30;90.00;;;;;;4980856;28;20123;-59
2023/07/23 07:43:35;;;;;;;5.43;1.20;;;23.40;86.10;;;;;;4977861;28;20086;-61
2023/07/23 07:46:03;;;;;;;3.75;1.13;;;23.50;83.00;;;;;;4980299;28;20398;-58
2023/07/23 07:48:29;;;;;;;5.57;1.00;;;23.50;84.00;;;;;;4974269;28;20042;-58
2023/07/23 07:51:03;;;;;;;2.22;1.10;;;23.50;81.90;;;;;;4980466;28;20042;-58
2023/07/23 07:53:29;;;;;;;1.75;1.13;;;23.50;81.40;;;;;;4978328;28;20110;-58
2023/07/23 07:55:56;;;;;;;1.38;0.80;;;23.70;80.20;;;;;;4979705;28;20045;-57
2023/07/23 07:58:25;;;;;;;0.93;0.80;;;23.70;80.20;;;;;;4980970;28;20105;-57
2023/07/23 08:00:57;;;;;;;1.00;0.73;;;23.90;79.70;;;;;;4981438;28;20033;-56
2023/07/23 08:03:25;;;;;;;1.20;0.90;;;24.00;76.30;;;;;;4977284;28;20019;-57
2023/07/23 08:05:51;;;;;;;1.42;0.65;;;23.90;72.70;;;;;;4976901;28;20038;-59
2023/07/23 08:08:22;;;;;;;1.02;0.90;;;23.90;74.30;;;;;;4976958;28;20503;-57
2023/07/23 08:10:48;;;;;;;1.15;0.88;;;24.00;72.50;;;;;;4978389;28;20514;-57
2023/07/23 08:13:15;;;;;;;1.70;1.30;;;24.10;72.60;;;;;;4979483;28;20029;-56
2023/07/23 08:15:41;;;;;;;3.83;1.58;;;24.30;72.50;;;;;;4977029;28;20154;-57
2023/07/23 08:18:07;;;;;;;1.17;0.80;;;24.30;68.90;;;;;;4980720;28;20570;-58
2023/07/23 08:20:35;;;;;;;1.25;0.90;;;24.40;68.90;;;;;;4986602;28;20042;-58
2023/07/23 08:23:01;;;;;;;6.93;0.90;;;24.50;68.40;;;;;;4981421;28;20854;-59
2023/07/23 08:25:30;;;;;;;1.35;0.93;;;24.60;68.00;;;;;;4982256;28;20415;-55
2023/07/23 08:28:01;;;;;;;0.95;0.88;;;24.70;66.00;;;;;;4978347;28;20034;-58
2023/07/23 08:30:30;;;;;;;2.08;0.90;;;24.80;65.50;;;;;;4978013;28;20506;-57
2023/07/23 08:33:01;;;;;;;8.70;1.10;;;24.90;63.70;;;;;;4977132;28;20031;-56
2023/07/23 08:35:29;;;;;;;1.23;0.70;;;24.90;63.00;;;;;;4978924;28;20026;-58
2023/07/23 08:37:56;;;;;;;1.00;0.85;;;25.10;64.70;;;;;;4978562;28;20076;-59
2023/07/23 08:40:24;;;;;;;3.35;0.80;;;25.10;62.60;;;;;;4979456;28;20034;-59
2023/07/23 08:43:06;;;;;;;0.93;0.70;;;25.30;62.00;;;;;;4977766;28;20502;-59
2023/07/23 08:46:10;;;;;;;1.23;0.90;;;25.40;59.70;;;;;;4979288;28;20030;-59
2023/07/23 08:48:56;;;;;;;2.17;1.42;;;25.20;60.40;;;;;;4973004;28;20065;-59
2023/07/23 08:51:26;;;;;;;2.97;1.60;;;25.10;62.10;;;;;;4979124;28;20103;-58
2023/07/23 08:53:53;;;;;;;1.75;0.98;;;25.10;61.90;;;;;;4978707;28;20022;-58
2023/07/23 08:56:19;;;;;;;4.65;1.50;;;25.00;60.70;;;;;;4977051;28;20106;-58
2023/07/23 08:58:46;;;;;;;4.60;1.30;;;24.80;62.00;;;;;;4977139;28;20577;-56
2023/07/23 09:01:16;;;;;;;2.75;1.40;;;24.80;62.00;;;;;;4976914;28;20022;-58
2023/07/23 09:03:42;;;;;;;1.38;1.27;;;24.90;62.10;;;;;;4979697;28;20038;-58
2023/07/23 09:06:08;;;;;;;1.58;1.30;;;24.80;64.00;;;;;;4978869;28;20821;-58
2023/07/23 09:08:34;;;;;;;3.60;1.20;;;24.80;63.00;;;;;;4978166;28;20125;-58
2023/07/23 09:11:04;;;;;;;1.75;1.13;;;24.80;63.00;;;;;;4961589;28;20556;-57
2023/07/23 09:13:34;;;;;;;0.98;0.90;;;24.80;62.50;;;;;;4976855;28;20388;-58
2023/07/23 09:16:01;;;;;;;7.28;1.40;;;24.90;63.10;;;;;;4979643;28;20045;-58
2023/07/23 09:18:26;;;;;;;1.63;1.27;;;25.00;63.00;;;;;;4981046;28;20035;-58
2023/07/23 09:20:52;;;;;;;12.30;1.42;;;25.10;63.90;;;;;;4979295;28;20026;-58
2023/07/23 09:23:18;;;;;;;4.38;1.60;;;25.50;63.60;;;;;;4979516;28;20018;-58
2023/07/23 09:25:44;;;;;;;1.63;1.20;;;25.60;60.50;;;;;;4981016;28;20502;-57
2023/07/23 09:28:30;;;;;;;1.73;1.20;;;25.60;60.70;;;;;;4976443;28;20151;-57
2023/07/23 09:30:57;;;;;;;1.42;0.80;;;25.40;62.40;;;;;;4977215;28;20113;-58
2023/07/23 09:33:36;;;;;;;2.30;1.10;;;25.40;61.30;;;;;;4979363;28;20035;-58
2023/07/23 09:36:03;;;;;;;0.88;0.75;;;25.40;61.10;;;;;;4974808;28;20026;-59
2023/07/23 09:38:29;;;;;;;5.03;1.20;;;25.40;60.50;;;;;;4977505;28;20031;-59
2023/07/23 09:40:55;;;;;;;5.47;1.75;;;25.30;60.20;;;;;;4978878;28;20018;-58
2023/07/23 09:43:21;;;;;;;32.97;5.30;;;25.30;61.70;;;;;;4980178;28;20063;-59
2023/07/23 09:45:47;;;;;;;1.00;0.80;;;25.30;61.20;;;;;;4979576;28;20085;-56
2023/07/23 09:48:17;;;;;;;2.08;1.13;;;25.40;61.30;;;;;;4977618;28;20379;-58
2023/07/23 09:50:48;;;;;;;1.85;1.30;;;25.30;60.10;;;;;;4977740;28;20030;-58
2023/07/23 09:53:15;;;;;;;1.50;0.75;;;25.20;60.80;;;;;;4976991;28;20513;-58
2023/07/23 09:55:43;;;;;;;1.73;1.40;;;25.10;61.30;;;;;;4976875;28;20054;-57
2023/07/23 09:58:09;;;;;;;1.83;1.15;;;25.00;61.20;;;;;;4976814;28;20517;-59
2023/07/23 10:00:36;;;;;;;1.20;0.88;;;25.10;61.50;;;;;;4977990;28;20071;-58
2023/07/23 10:03:04;;;;;;;1.40;1.05;;;25.30;60.10;;;;;;4977337;28;20030;-58
2023/07/23 10:05:29;;;;;;;1.40;0.80;;;25.40;60.40;;;;;;4977876;28;20093;-56
2023/07/23 10:07:57;;;;;;;2.53;1.10;;;25.30;60.50;;;;;;4978715;28;20500;-56
2023/07/23 10:10:23;;;;;;;5.65;0.80;;;25.40;60.50;;;;;;4976265;28;20477;-59
2023/07/23 10:12:49;;;;;;;1.60;0.90;;;25.50;59.90;;;;;;4977331;28;20031;-56
2023/07/23 10:15:15;;;;;;;0.63;0.60;;;25.60;61.40;;;;;;4978796;28;20030;-57
2023/07/23 10:17:47;;;;;;;4.30;0.50;;;25.80;61.20;;;;;;4975644;28;20577;-57
2023/07/23 10:20:15;;;;;;;3.35;1.08;;;26.10;59.10;;;;;;4979406;28;20030;-57
2023/07/23 10:22:44;;;;;;;1.92;0.70;;;26.30;58.40;;;;;;4977139;28;20054;-57
2023/07/23 10:25:30;;;;;;;1.05;0.40;;;26.40;58.40;;;;;;4975266;28;20042;-59
2023/07/23 10:28:00;;;;;;;0.82;0.60;;;26.50;57.50;;;;;;4978560;28;20027;-57
2023/07/23 10:30:27;;;;;;;2.13;0.63;;;26.60;57.00;;;;;;4976328;28;20121;-58
2023/07/23 10:33:11;;;;;;;1.10;0.60;;;26.70;57.80;;;;;;4976609;28;20081;-57
2023/07/23 10:36:04;;;;;;;2.67;0.70;;;26.70;57.00;;;;;;4980811;28;20034;-57
2023/07/23 10:38:36;;;;;;;0.75;0.57;;;26.60;56.50;;;;;;4976059;28;20049;-57
2023/07/23 10:41:02;;;;;;;287.90;17.27;;;26.30;55.30;;;;;;4977808;28;20039;-58
2023/07/23 10:43:46;;;;;;;1.10;0.50;;;26.30;56.50;;;;;;4974617;28;20038;-59
2023/07/23 10:46:19;;;;;;;1.17;0.65;;;26.40;56.90;;;;;;4974079;28;20027;-58
2023/07/23 10:48:50;;;;;;;0.63;0.47;;;26.50;56.10;;;;;;4976354;28;20117;-57
2023/07/23 10:51:21;;;;;;;1.00;0.90;;;26.60;55.50;;;;;;4974981;28;20547;-58
2023/07/23 10:53:56;;;;;;;;;;;26.50;55.60;;;;;;4980450;28;20121;-57
2023/07/23 10:56:22;;;;;;;1.15;0.60;;;26.50;55.10;;;;;;4974568;28;19918;-57
2023/07/23 10:58:48;;;;;;;1.00;0.60;;;26.70;56.50;;;;;;4976914;28;20023;-56
2023/07/23 11:01:20;;;;;;;1.52;0.77;;;26.60;55.90;;;;;;4977735;28;20027;-57
2023/07/23 11:03:46;;;;;;;0.60;0.50;;;26.60;56.60;;;;;;4977650;28;20034;-58
2023/07/23 11:06:32;;;;;;;3.17;0.65;;;26.70;56.40;;;;;;4976081;28;20034;-58
2023/07/23 11:09:05;;;;;;;0.90;0.65;;;26.70;55.10;;;;;;4976503;28;20035;-56
2023/07/23 11:11:36;;;;;;;0.90;0.70;;;26.80;55.00;;;;;;4978413;28;20081;-57
2023/07/23 11:14:03;;;;;;;1.65;1.08;;;27.00;55.80;;;;;;4976339;28;20033;-57
2023/07/23 11:16:33;;;;;;;1.00;0.80;;;27.20;55.50;;;;;;4973575;28;20507;-59
2023/07/23 11:19:00;;;;;;;0.70;0.65;;;27.60;54.80;;;;;;4972690;28;20038;-56
2023/07/23 11:21:27;;;;;;;2.00;0.95;;;27.80;54.50;;;;;;4975166;28;20034;-58
2023/07/23 11:23:53;;;;;;;0.85;0.55;;;27.80;54.30;;;;;;4976197;28;20023;-58
2023/07/23 11:26:20;;;;;;;1.98;0.70;;;27.90;53.30;;;;;;4976104;28;20038;-57
2023/07/23 11:28:46;;;;;;;0.75;0.60;;;27.90;52.30;;;;;;4974026;28;20095;-56
2023/07/23 11:31:13;;;;;;;2.13;0.80;;;27.70;52.00;;;;;;4977909;28;20037;-57
2023/07/23 11:33:38;;;;;;;0.70;0.60;;;27.60;52.70;;;;;;4984330;28;20492;-57
2023/07/23 11:36:04;;;;;;;0.80;0.60;;;27.60;53.10;;;;;;4981417;28;20039;-57
2023/07/23 11:38:33;;;;;;;1.00;0.75;;;27.60;52.90;;;;;;4982856;28;20030;-57
2023/07/23 11:41:00;;;;;;;3.35;1.40;;;27.60;51.90;;;;;;4982271;28;20471;-57
2023/07/23 11:43:25;;;;;;;1.52;1.20;;;27.60;53.00;;;;;;4980528;28;20630;-58
2023/07/23 11:45:51;;;;;;;1.00;0.88;;;27.70;51.10;;;;;;4982903;28;20060;-57
2023/07/23 11:48:22;;;;;;;4.05;1.00;;;27.60;51.60;;;;;;4982153;28;20031;-57
2023/07/23 11:50:50;;;;;;;2.03;0.95;;;27.70;52.00;;;;;;4979586;28;20039;-55
2023/07/23 11:53:37;;;;;;;1.05;0.90;;;27.70;51.80;;;;;;4980654;28;20018;-58
2023/07/23 11:56:14;;;;;;;1.13;0.95;;;27.50;51.50;;;;;;4979773;28;20045;-58
2023/07/23 11:58:41;;;;;;;1.75;0.93;;;27.40;50.70;;;;;;4980987;28;20035;-57
2023/07/23 12:01:08;;;;;;;3.03;0.80;;;27.40;51.50;;;;;;4979094;28;20031;-57
2023/07/23 12:03:41;;;;;;;1.13;1.02;;;27.50;52.30;;;;;;4980303;28;20166;-57
2023/07/23 12:06:08;;;;;;;1.60;1.05;;;27.40;52.00;;;;;;4975844;28;20035;-58
2023/07/23 12:08:35;;;;;;;1.00;0.90;;;27.30;52.30;;;;;;4981078;28;20030;-58
2023/07/23 12:11:32;;;;;;;1.02;0.50;;;27.40;53.10;;;;;;4982447;28;20151;-58
2023/07/23 12:14:02;;;;;;;1.08;0.63;;;27.60;51.80;;;;;;4982784;28;20049;-58
2023/07/23 12:16:38;;;;;;;0.75;0.70;;;27.60;51.40;;;;;;4999275;28;20026;-58
2023/07/23 12:19:04;;;;;;;0.80;0.60;;;27.60;51.20;;;;;;4999664;28;20033;-59
2023/07/23 12:21:37;;;;;;;2.70;0.90;;;27.70;51.30;;;;;;4998910;28;20478;-59
2023/07/23 12:24:20;;;;;;;1.40;0.80;;;27.70;50.90;;;;;;5001378;28;20109;-57
2023/07/23 12:26:49;;;;;;;2.20;0.85;;;27.90;51.30;;;;;;4999679;28;20038;-59
2023/07/23 12:29:16;;;;;;;0.60;0.60;;;28.00;50.90;;;;;;4998797;28;20045;-59
2023/07/23 12:31:43;;;;;;;308.75;19.50;;;28.10;50.70;;;;;;5000105;28;20033;-58
2023/07/23 12:34:10;;;;;;;1999.90;999.90;;;28.20;50.90;;;;;;4997258;28;20034;-58
2023/07/23 12:36:36;;;;;;;612.17;332.90;;;28.20;49.60;;;;;;4997634;28;20149;-58
2023/07/23 12:39:04;;;;;;;0.73;0.52;;;28.20;48.20;;;;;;5000706;28;20125;-58
2023/07/23 12:41:29;;;;;;;0.85;0.77;;;28.10;49.10;;;;;;5000253;28;20497;-58
2023/07/23 12:43:55;;;;;;;2.33;0.80;;;28.10;49.60;;;;;;4999753;28;20019;-59
2023/07/23 12:46:21;;;;;;;3.03;0.73;;;28.00;49.80;;;;;;4998111;28;20034;-57